createdAt,value
2023-06-29T00:00:11.774Z,93132.00
2023-06-29T00:01:11.829Z,93130.00
2023-06-29T00:02:11.776Z,93128.00
2023-06-29T00:03:11.909Z,93128.00
2023-06-29T00:04:11.859Z,93128.00
2023-06-29T00:05:11.902Z,93128.00
2023-06-29T00:06:11.957Z,93126.00
2023-06-29T00:07:12.104Z,93126.00
2023-06-29T00:08:12.031Z,93124.00
2023-06-29T00:09:12.069Z,93122.00
2023-06-29T00:10:12.129Z,93122.00
2023-06-29T00:11:12.149Z,93120.00
2023-06-29T00:12:12.187Z,93120.00
2023-06-29T00:13:12.224Z,93118.00
2023-06-29T00:14:12.863Z,93120.00
2023-06-29T00:15:12.324Z,93116.00
2023-06-29T00:16:12.355Z,93116.00
2023-06-29T00:17:12.376Z,93116.00
2023-06-29T00:18:12.435Z,93115.00
2023-06-29T00:19:12.451Z,93115.00
2023-06-29T00:20:12.615Z,93115.00
2023-06-29T00:21:12.543Z,93116.00
2023-06-29T00:22:12.576Z,93115.00
2023-06-29T00:23:12.614Z,93116.00
2023-06-29T00:24:12.666Z,93116.00
2023-06-29T00:25:12.708Z,93115.00
2023-06-29T00:26:12.744Z,93113.00
2023-06-29T00:27:13.728Z,93115.00
2023-06-29T00:28:12.722Z,93113.00
2023-06-29T00:29:12.824Z,93109.00
2023-06-29T00:30:12.712Z,93109.00
2023-06-29T00:31:12.740Z,93107.00
2023-06-29T00:32:12.683Z,93111.00
2023-06-29T00:33:12.699Z,93111.00
2023-06-29T00:34:12.666Z,93109.00
2023-06-29T00:35:12.662Z,93113.00
2023-06-29T00:36:12.652Z,93113.00
2023-06-29T00:37:12.656Z,93111.00
2023-06-29T00:38:12.649Z,93113.00
2023-06-29T00:39:12.701Z,93111.00
2023-06-29T00:40:12.704Z,93115.00
2023-06-29T00:41:12.767Z,93116.00
2023-06-29T00:42:12.816Z,93116.00
2023-06-29T00:43:12.834Z,93115.00
2023-06-29T00:44:12.878Z,93118.00
2023-06-29T00:45:12.947Z,93118.00
2023-06-29T00:46:12.979Z,93118.00
2023-06-29T00:47:13.005Z,93116.00
2023-06-29T00:48:13.057Z,93118.00
2023-06-29T00:49:13.109Z,93116.00
2023-06-29T00:50:13.155Z,93116.00
2023-06-29T00:51:13.173Z,93116.00
2023-06-29T00:52:13.223Z,93115.00
2023-06-29T00:53:13.281Z,93116.00
2023-06-29T00:54:13.323Z,93115.00
2023-06-29T00:55:13.422Z,93115.00
2023-06-29T00:56:13.413Z,93115.00
2023-06-29T00:57:13.518Z,93116.00
2023-06-29T00:58:13.510Z,93115.00
2023-06-29T00:59:13.549Z,93113.00
2023-06-29T01:00:14.363Z,93113.00
2023-06-29T01:01:13.648Z,93111.00
2023-06-29T01:02:13.676Z,93111.00
2023-06-29T01:03:13.804Z,93109.00
2023-06-29T01:04:13.766Z,93111.00
2023-06-29T01:05:13.829Z,93107.00
2023-06-29T01:06:13.867Z,93107.00
2023-06-29T01:07:13.974Z,93105.00
2023-06-29T01:08:13.963Z,93105.00
2023-06-29T01:09:13.987Z,93103.00
2023-06-29T01:10:14.041Z,93103.00
2023-06-29T01:11:14.072Z,93093.00
2023-06-29T01:12:14.120Z,93101.00
2023-06-29T01:13:14.868Z,93101.00
2023-06-29T01:14:14.195Z,93101.00
2023-06-29T01:15:14.295Z,93091.00
2023-06-29T01:16:14.349Z,93093.00
2023-06-29T01:17:14.336Z,93091.00
2023-06-29T01:18:14.373Z,93089.00
2023-06-29T01:19:14.420Z,93091.00
2023-06-29T01:20:15.429Z,93101.00
2023-06-29T01:21:14.510Z,93101.00
2023-06-29T01:22:14.578Z,93093.00
2023-06-29T01:23:14.602Z,93093.00
2023-06-29T01:24:14.634Z,93101.00
2023-06-29T01:25:14.682Z,93091.00
2023-06-29T01:26:14.736Z,93093.00
2023-06-29T01:27:14.768Z,93091.00
2023-06-29T01:28:14.843Z,93093.00
2023-06-29T01:29:14.925Z,93093.00
2023-06-29T01:30:14.901Z,93091.00
2023-06-29T01:31:15.887Z,93093.00
2023-06-29T01:32:15.003Z,93091.00
2023-06-29T01:33:15.048Z,93089.00
2023-06-29T01:34:15.086Z,93091.00
2023-06-29T01:35:15.144Z,93089.00
2023-06-29T01:36:15.201Z,93087.00
2023-06-29T01:37:15.276Z,93087.00
2023-06-29T01:38:15.291Z,93089.00
2023-06-29T01:39:15.332Z,93087.00
2023-06-29T01:40:15.390Z,93089.00
2023-06-29T01:41:15.427Z,93087.00
2023-06-29T01:42:15.480Z,93089.00
2023-06-29T01:43:15.887Z,93085.00
2023-06-29T01:44:15.574Z,93085.00
2023-06-29T01:45:15.707Z,93083.00
2023-06-29T01:46:15.742Z,93085.00
2023-06-29T01:47:15.722Z,93083.00
2023-06-29T01:48:15.771Z,93083.00
2023-06-29T01:49:15.836Z,93085.00
2023-06-29T01:50:15.906Z,93083.00
2023-06-29T01:51:15.934Z,93085.00
2023-06-29T01:52:15.969Z,93083.00
2023-06-29T01:53:16.010Z,93085.00
2023-06-29T01:54:16.154Z,93083.00
2023-06-29T01:55:16.116Z,93083.00
2023-06-29T01:56:16.156Z,93085.00
2023-06-29T01:57:16.214Z,93085.00
2023-06-29T01:58:16.250Z,93081.00
2023-06-29T01:59:16.302Z,93085.00
2023-06-29T02:00:16.392Z,93083.00
2023-06-29T02:01:16.413Z,93083.00
2023-06-29T02:02:16.465Z,93079.00
2023-06-29T02:03:16.644Z,93078.00
2023-06-29T02:04:16.549Z,93078.00
2023-06-29T02:05:16.596Z,93078.00
2023-06-29T02:06:16.638Z,93079.00
2023-06-29T02:07:16.706Z,93076.00
2023-06-29T02:08:16.748Z,93078.00
2023-06-29T02:09:16.858Z,93078.00
2023-06-29T02:10:16.899Z,93078.00
2023-06-29T02:11:16.877Z,93078.00
2023-06-29T02:12:16.936Z,93081.00
2023-06-29T02:13:17.064Z,93076.00
2023-06-29T02:14:17.008Z,93078.00
2023-06-29T02:15:17.055Z,93078.00
2023-06-29T02:16:17.194Z,93076.00
2023-06-29T02:17:17.145Z,93078.00
2023-06-29T02:18:17.191Z,93079.00
2023-06-29T02:19:17.233Z,93078.00
2023-06-29T02:20:17.284Z,93078.00
2023-06-29T02:21:17.336Z,93081.00
2023-06-29T02:22:17.378Z,93079.00
2023-06-29T02:23:17.426Z,93081.00
2023-06-29T02:24:17.469Z,93079.00
2023-06-29T02:25:17.525Z,93078.00
2023-06-29T02:26:17.570Z,93076.00
2023-06-29T02:27:17.612Z,93078.00
2023-06-29T02:28:17.670Z,93076.00
2023-06-29T02:29:17.707Z,93074.00
2023-06-29T02:30:17.747Z,93068.00
2023-06-29T02:31:17.840Z,93072.00
2023-06-29T02:32:17.854Z,93070.00
2023-06-29T02:33:17.915Z,93072.00
2023-06-29T02:34:17.968Z,93076.00
2023-06-29T02:35:18.025Z,93074.00
2023-06-29T02:36:18.060Z,93074.00
2023-06-29T02:37:18.130Z,93072.00
2023-06-29T02:38:18.166Z,93072.00
2023-06-29T02:39:18.209Z,93070.00
2023-06-29T02:40:18.272Z,93066.00
2023-06-29T02:41:18.316Z,93068.00
2023-06-29T02:42:18.371Z,93068.00
2023-06-29T02:43:18.423Z,93068.00
2023-06-29T02:44:18.464Z,93068.00
2023-06-29T02:45:18.515Z,93072.00
2023-06-29T02:46:18.570Z,93072.00
2023-06-29T02:47:18.626Z,93074.00
2023-06-29T02:48:18.682Z,93072.00
2023-06-29T02:49:18.713Z,93074.00
2023-06-29T02:50:18.763Z,93076.00
2023-06-29T02:51:18.815Z,93078.00
2023-06-29T02:52:18.859Z,93078.00
2023-06-29T02:53:18.904Z,93076.00
2023-06-29T02:54:18.953Z,93076.00
2023-06-29T02:55:19.009Z,93078.00
2023-06-29T02:56:19.054Z,93078.00
2023-06-29T02:57:19.103Z,93078.00
2023-06-29T02:58:19.149Z,93081.00
2023-06-29T02:59:19.199Z,93079.00
2023-06-29T03:00:19.245Z,93079.00
2023-06-29T03:01:19.322Z,93079.00
2023-06-29T03:02:19.897Z,93079.00
2023-06-29T03:03:19.502Z,93078.00
2023-06-29T03:04:19.435Z,93079.00
2023-06-29T03:05:19.506Z,93076.00
2023-06-29T03:06:19.533Z,93076.00
2023-06-29T03:07:19.601Z,93078.00
2023-06-29T03:08:19.623Z,93078.00
2023-06-29T03:09:19.673Z,93079.00
2023-06-29T03:10:19.756Z,93078.00
2023-06-29T03:11:19.776Z,93076.00
2023-06-29T03:12:19.824Z,93074.00
2023-06-29T03:13:19.872Z,93076.00
2023-06-29T03:14:19.930Z,93074.00
2023-06-29T03:15:20.885Z,93074.00
2023-06-29T03:16:20.058Z,93078.00
2023-06-29T03:17:20.093Z,93074.00
2023-06-29T03:18:20.127Z,93076.00
2023-06-29T03:19:20.174Z,93076.00
2023-06-29T03:20:20.224Z,93074.00
2023-06-29T03:21:20.282Z,93072.00
2023-06-29T03:22:20.344Z,93078.00
2023-06-29T03:23:20.388Z,93078.00
2023-06-29T03:24:20.434Z,93076.00
2023-06-29T03:25:20.536Z,93072.00
2023-06-29T03:26:20.538Z,93072.00
2023-06-29T03:27:20.658Z,93072.00
2023-06-29T03:28:20.654Z,93072.00
2023-06-29T03:29:20.710Z,93072.00
2023-06-29T03:30:20.764Z,93074.00
2023-06-29T03:31:20.902Z,93076.00
2023-06-29T03:32:20.869Z,93076.00
2023-06-29T03:33:20.908Z,93078.00
2023-06-29T03:34:20.974Z,93074.00
2023-06-29T03:35:21.019Z,93072.00
2023-06-29T03:36:21.065Z,93074.00
2023-06-29T03:37:21.126Z,93074.00
2023-06-29T03:38:21.179Z,93074.00
2023-06-29T03:39:21.231Z,93076.00
2023-06-29T03:40:21.281Z,93074.00
2023-06-29T03:41:21.339Z,93076.00
2023-06-29T03:42:21.473Z,93076.00
2023-06-29T03:43:21.437Z,93076.00
2023-06-29T03:44:21.494Z,93074.00
2023-06-29T03:45:21.545Z,93074.00
2023-06-29T03:46:21.642Z,93072.00
2023-06-29T03:47:21.689Z,93072.00
2023-06-29T03:48:21.853Z,93068.00
2023-06-29T03:49:21.754Z,93066.00
2023-06-29T03:50:21.811Z,93064.00
2023-06-29T03:51:21.859Z,93066.00
2023-06-29T03:52:21.915Z,93064.00
2023-06-29T03:53:21.972Z,93060.00
2023-06-29T03:54:22.035Z,93064.00
2023-06-29T03:55:22.073Z,93062.00
2023-06-29T03:56:22.069Z,93060.00
2023-06-29T03:57:22.277Z,93060.00
2023-06-29T03:58:22.105Z,93058.00
2023-06-29T03:59:22.113Z,93060.00
2023-06-29T04:00:22.207Z,93056.00
2023-06-29T04:01:22.150Z,93060.00
2023-06-29T04:02:22.232Z,93054.00
2023-06-29T04:03:22.248Z,93056.00
2023-06-29T04:04:22.189Z,93056.00
2023-06-29T04:05:22.225Z,93056.00
2023-06-29T04:06:22.238Z,93060.00
2023-06-29T04:07:22.359Z,93056.00
2023-06-29T04:08:22.276Z,93056.00
2023-06-29T04:09:22.331Z,93058.00
2023-06-29T04:10:22.320Z,93058.00
2023-06-29T04:11:22.340Z,93058.00
2023-06-29T04:12:22.363Z,93056.00
2023-06-29T04:13:22.373Z,93058.00
2023-06-29T04:14:22.383Z,93060.00
2023-06-29T04:15:22.403Z,93060.00
2023-06-29T04:16:22.430Z,93060.00
2023-06-29T04:17:22.479Z,93060.00
2023-06-29T04:18:22.462Z,93058.00
2023-06-29T04:19:22.474Z,93058.00
2023-06-29T04:20:22.509Z,93058.00
2023-06-29T04:21:23.400Z,93056.00
2023-06-29T04:22:23.484Z,93056.00
2023-06-29T04:23:22.549Z,93054.00
2023-06-29T04:24:22.557Z,93056.00
2023-06-29T04:25:22.582Z,93052.00
2023-06-29T04:26:22.608Z,93054.00
2023-06-29T04:27:22.620Z,93052.00
2023-06-29T04:28:22.639Z,93052.00
2023-06-29T04:29:23.396Z,93052.00
2023-06-29T04:30:22.678Z,93054.00
2023-06-29T04:31:22.785Z,93052.00
2023-06-29T04:32:22.740Z,93052.00
2023-06-29T04:33:22.739Z,93054.00
2023-06-29T04:34:22.779Z,93052.00
2023-06-29T04:35:22.757Z,93054.00
2023-06-29T04:36:22.768Z,93056.00
2023-06-29T04:37:22.788Z,93054.00
2023-06-29T04:38:22.803Z,93052.00
2023-06-29T04:39:22.812Z,93056.00
2023-06-29T04:40:22.925Z,93054.00
2023-06-29T04:41:22.853Z,93052.00
2023-06-29T04:42:22.889Z,93054.00
2023-06-29T04:43:22.894Z,93056.00
2023-06-29T04:44:22.926Z,93058.00
2023-06-29T04:45:23.071Z,93058.00
2023-06-29T04:46:22.962Z,93056.00
2023-06-29T04:47:22.979Z,93056.00
2023-06-29T04:48:22.969Z,93056.00
2023-06-29T04:49:23.016Z,93054.00
2023-06-29T04:50:22.993Z,93052.00
2023-06-29T04:51:23.058Z,93050.00
2023-06-29T04:52:23.061Z,93048.00
2023-06-29T04:53:23.043Z,93046.00
2023-06-29T04:54:23.052Z,93046.00
2023-06-29T04:55:23.072Z,93046.00
2023-06-29T04:56:23.133Z,93044.00
2023-06-29T04:57:23.130Z,93044.00
2023-06-29T04:58:23.404Z,93042.00
2023-06-29T04:59:23.150Z,93042.00
2023-06-29T05:00:23.156Z,93040.00
2023-06-29T05:01:23.230Z,93038.00
2023-06-29T05:02:23.277Z,93038.00
2023-06-29T05:03:23.374Z,93036.00
2023-06-29T05:04:23.229Z,93036.00
2023-06-29T05:05:23.252Z,93036.00
2023-06-29T05:06:23.255Z,93038.00
2023-06-29T05:07:23.395Z,93036.00
2023-06-29T05:08:23.296Z,93036.00
2023-06-29T05:09:23.380Z,93036.00
2023-06-29T05:10:23.329Z,93036.00
2023-06-29T05:11:23.897Z,93032.00
2023-06-29T05:12:23.380Z,93036.00
2023-06-29T05:13:23.414Z,93032.00
2023-06-29T05:14:23.494Z,93032.00
2023-06-29T05:15:23.455Z,93032.00
2023-06-29T05:16:23.504Z,93030.00
2023-06-29T05:17:23.567Z,93026.00
2023-06-29T05:18:23.440Z,93028.00
2023-06-29T05:19:23.475Z,93026.00
2023-06-29T05:20:23.460Z,93026.00
2023-06-29T05:21:23.485Z,93028.00
2023-06-29T05:22:23.481Z,93026.00
2023-06-29T05:23:23.538Z,93026.00
2023-06-29T05:24:23.575Z,93024.00
2023-06-29T05:25:23.540Z,93024.00
2023-06-29T05:26:23.582Z,93024.00
2023-06-29T05:27:23.603Z,93024.00
2023-06-29T05:28:23.665Z,93023.00
2023-06-29T05:29:23.629Z,93021.00
2023-06-29T05:30:23.648Z,93019.00
2023-06-29T05:31:23.750Z,93017.00
2023-06-29T05:32:24.437Z,93015.00
2023-06-29T05:33:23.788Z,93011.00
2023-06-29T05:34:23.760Z,93011.00
2023-06-29T05:35:23.774Z,93011.00
2023-06-29T05:36:23.780Z,93009.00
2023-06-29T05:37:23.797Z,93009.00
2023-06-29T05:38:23.834Z,93011.00
2023-06-29T05:39:23.872Z,93011.00
2023-06-29T05:40:23.922Z,93007.00
2023-06-29T05:41:23.958Z,93009.00
2023-06-29T05:42:24.012Z,93007.00
2023-06-29T05:43:24.022Z,93005.00
2023-06-29T05:44:24.053Z,93005.00
2023-06-29T05:45:24.094Z,93005.00
2023-06-29T05:46:24.162Z,93003.00
2023-06-29T05:47:24.165Z,93003.00
2023-06-29T05:48:24.184Z,93001.00
2023-06-29T05:49:24.263Z,93005.00
2023-06-29T05:50:24.279Z,92999.00
2023-06-29T05:51:24.397Z,92999.00
2023-06-29T05:52:24.400Z,92997.00
2023-06-29T05:53:24.448Z,92999.00
2023-06-29T05:54:24.558Z,92995.00
2023-06-29T05:55:24.542Z,92993.00
2023-06-29T05:56:24.585Z,92993.00
2023-06-29T05:57:24.626Z,92995.00
2023-06-29T05:58:24.710Z,92993.00
2023-06-29T05:59:24.709Z,92991.00
2023-06-29T06:00:24.958Z,92989.00
2023-06-29T06:01:24.775Z,92987.00
2023-06-29T06:02:24.818Z,92987.00
2023-06-29T06:03:24.864Z,92987.00
2023-06-29T06:04:24.862Z,92987.00
2023-06-29T06:05:24.904Z,92985.00
2023-06-29T06:06:24.954Z,92981.00
2023-06-29T06:07:25.098Z,92979.00
2023-06-29T06:08:25.086Z,92976.00
2023-06-29T06:09:25.163Z,92976.00
2023-06-29T06:10:25.202Z,92972.00
2023-06-29T06:11:25.470Z,92972.00
2023-06-29T06:12:25.296Z,92970.00
2023-06-29T06:13:25.347Z,92972.00
2023-06-29T06:14:25.397Z,92972.00
2023-06-29T06:15:25.449Z,92970.00
2023-06-29T06:16:25.511Z,92970.00
2023-06-29T06:17:25.629Z,92968.00
2023-06-29T06:18:25.532Z,92966.00
2023-06-29T06:19:25.542Z,92962.00
2023-06-29T06:20:25.578Z,92964.00
2023-06-29T06:21:25.753Z,92962.00
2023-06-29T06:22:25.587Z,92960.00
2023-06-29T06:23:26.334Z,92960.00
2023-06-29T06:24:25.621Z,92956.00
2023-06-29T06:25:25.627Z,92950.00
2023-06-29T06:26:25.673Z,92948.00
2023-06-29T06:27:25.758Z,92950.00
2023-06-29T06:28:25.691Z,92950.00
2023-06-29T06:29:25.712Z,92950.00
2023-06-29T06:30:25.785Z,92948.00
2023-06-29T06:31:34.175Z,92950.00
2023-06-29T06:32:26.915Z,92946.00
2023-06-29T06:33:25.802Z,92942.00
2023-06-29T06:34:26.456Z,92944.00
2023-06-29T06:35:25.795Z,92942.00
2023-06-29T06:36:25.798Z,92944.00
2023-06-29T06:37:25.801Z,92938.00
2023-06-29T06:38:34.418Z,92942.00
2023-06-29T06:39:27.420Z,92938.00
2023-06-29T06:40:25.867Z,92938.00
2023-06-29T06:41:25.893Z,92938.00
2023-06-29T06:42:25.807Z,92936.00
2023-06-29T06:43:25.812Z,92934.00
2023-06-29T06:44:26.424Z,92936.00
2023-06-29T06:45:26.931Z,92936.00
2023-06-29T06:46:26.010Z,92932.00
2023-06-29T06:47:26.011Z,92934.00
2023-06-29T06:48:26.075Z,92932.00
2023-06-29T06:49:26.181Z,92932.00
2023-06-29T06:50:26.185Z,92934.00
2023-06-29T06:51:26.216Z,92930.00
2023-06-29T06:52:26.260Z,92932.00
2023-06-29T06:53:26.321Z,92930.00
2023-06-29T06:54:26.914Z,92930.00
2023-06-29T06:55:26.435Z,92930.00
2023-06-29T06:56:26.512Z,92929.00
2023-06-29T06:57:26.570Z,92925.00
2023-06-29T06:58:26.642Z,92927.00
2023-06-29T06:59:26.712Z,92923.00
2023-06-29T07:00:26.833Z,92921.00
2023-06-29T07:01:26.868Z,92921.00
2023-06-29T07:02:28.012Z,92917.00
2023-06-29T07:03:27.198Z,92915.00
2023-06-29T07:04:26.991Z,92917.00
2023-06-29T07:05:27.915Z,92915.00
2023-06-29T07:06:27.114Z,92915.00
2023-06-29T07:07:27.163Z,92913.00
2023-06-29T07:08:27.244Z,92911.00
2023-06-29T07:09:27.217Z,92909.00
2023-06-29T07:10:27.322Z,92911.00
2023-06-29T07:11:27.308Z,92907.00
2023-06-29T07:12:27.368Z,92905.00
2023-06-29T07:13:27.418Z,92905.00
2023-06-29T07:14:27.499Z,92905.00
2023-06-29T07:15:27.552Z,92903.00
2023-06-29T07:16:27.632Z,92899.00
2023-06-29T07:17:27.743Z,92897.00
2023-06-29T07:18:27.689Z,92893.00
2023-06-29T07:21:27.697Z,92893.00
2023-06-29T07:24:27.683Z,92885.00
2023-06-29T07:25:27.759Z,92885.00
2023-06-29T07:26:27.705Z,92885.00
2023-06-29T07:27:27.687Z,92881.00
2023-06-29T07:28:27.740Z,92879.00
2023-06-29T07:29:27.680Z,92879.00
2023-06-29T07:30:27.807Z,92877.00
2023-06-29T07:31:27.809Z,92875.00
2023-06-29T07:32:27.684Z,92875.00
2023-06-29T07:33:27.921Z,92874.00
2023-06-29T07:34:27.656Z,92872.00
2023-06-29T07:35:27.656Z,92870.00
2023-06-29T07:36:27.640Z,92870.00
2023-06-29T07:37:27.641Z,92866.00
2023-06-29T07:38:27.628Z,92864.00
2023-06-29T07:39:27.628Z,92866.00
2023-06-29T07:40:27.625Z,92864.00
2023-06-29T07:41:28.530Z,92864.00
2023-06-29T07:42:38.805Z,92860.00
2023-06-29T07:43:28.610Z,92858.00
2023-06-29T07:44:27.592Z,92858.00
2023-06-29T07:45:27.658Z,92850.00
2023-06-29T07:46:27.583Z,92852.00
2023-06-29T07:47:27.660Z,92852.00
2023-06-29T07:48:27.669Z,92850.00
2023-06-29T07:49:27.563Z,92848.00
2023-06-29T07:50:27.556Z,92846.00
2023-06-29T07:51:27.552Z,92846.00
2023-06-29T07:52:27.547Z,92844.00
2023-06-29T07:53:27.531Z,92837.00
2023-06-29T07:54:27.519Z,92835.00
2023-06-29T07:55:27.517Z,92835.00
2023-06-29T07:58:39.179Z,92833.00
2023-06-29T07:59:27.499Z,92827.00
2023-06-29T08:00:27.483Z,92825.00
2023-06-29T08:01:27.489Z,92825.00
2023-06-29T08:02:27.509Z,92823.00
2023-06-29T08:03:27.483Z,92821.00
2023-06-29T08:07:27.521Z,92817.00
2023-06-29T08:08:27.512Z,92819.00
2023-06-29T08:09:28.419Z,92817.00
2023-06-29T08:10:27.932Z,92813.00
2023-06-29T08:11:27.413Z,92815.00
2023-06-29T08:12:27.396Z,92811.00
2023-06-29T08:13:27.388Z,92813.00
2023-06-29T08:14:27.378Z,92807.00
2023-06-29T08:15:27.377Z,92805.00
2023-06-29T08:16:27.431Z,92803.00
2023-06-29T08:17:30.005Z,92803.00
2023-06-29T08:18:27.631Z,92799.00
2023-06-29T08:19:27.601Z,92797.00
2023-06-29T08:20:27.582Z,92797.00
2023-06-29T08:21:27.578Z,92791.00
2023-06-29T08:22:27.597Z,92791.00
2023-06-29T08:23:27.604Z,92791.00
2023-06-29T08:24:27.607Z,92791.00
2023-06-29T08:25:27.599Z,92790.00
2023-06-29T08:26:27.593Z,92788.00
2023-06-29T08:27:27.593Z,92784.00
2023-06-29T08:28:27.583Z,92780.00
2023-06-29T08:29:27.580Z,92780.00
2023-06-29T08:30:27.566Z,92778.00
2023-06-29T08:31:27.610Z,92776.00
2023-06-29T08:32:27.666Z,92774.00
2023-06-29T08:33:27.614Z,92774.00
2023-06-29T08:34:28.368Z,92776.00
2023-06-29T08:35:27.664Z,92772.00
2023-06-29T08:36:27.554Z,92772.00
2023-06-29T08:37:27.525Z,92772.00
2023-06-29T08:38:27.530Z,92770.00
2023-06-29T08:39:27.520Z,92766.00
2023-06-29T08:40:27.523Z,92762.00
2023-06-29T08:41:27.517Z,92762.00
2023-06-29T08:42:28.444Z,92760.00
2023-06-29T08:43:27.513Z,92760.00
2023-06-29T08:44:27.533Z,92758.00
2023-06-29T08:45:27.500Z,92758.00
2023-06-29T08:46:28.554Z,92758.00
2023-06-29T08:47:27.516Z,92752.00
2023-06-29T08:48:27.489Z,92752.00
2023-06-29T08:49:27.471Z,92752.00
2023-06-29T08:50:27.485Z,92752.00
2023-06-29T08:51:27.431Z,92748.00
2023-06-29T08:52:27.423Z,92750.00
2023-06-29T08:53:28.378Z,92744.00
2023-06-29T08:54:28.758Z,92744.00
2023-06-29T08:55:27.383Z,92743.00
2023-06-29T08:56:27.381Z,92743.00
2023-06-29T08:57:27.369Z,92741.00
2023-06-29T08:58:27.356Z,92737.00
2023-06-29T08:59:27.341Z,92735.00
2023-06-29T09:00:29.509Z,92735.00
2023-06-29T09:01:27.389Z,92731.00
2023-06-29T09:02:27.467Z,92731.00
2023-06-29T09:03:27.654Z,92733.00
2023-06-29T09:04:27.473Z,92731.00
2023-06-29T09:05:28.371Z,92731.00
2023-06-29T09:06:29.918Z,92725.00
2023-06-29T09:07:27.662Z,92723.00
2023-06-29T09:08:27.998Z,92723.00
2023-06-29T09:09:27.510Z,92721.00
2023-06-29T09:10:27.510Z,92719.00
2023-06-29T09:11:27.516Z,92717.00
2023-06-29T09:12:27.493Z,92717.00
2023-06-29T09:13:27.497Z,92717.00
2023-06-29T09:14:27.565Z,92713.00
2023-06-29T09:15:27.546Z,92711.00
2023-06-29T09:16:27.549Z,92707.00
2023-06-29T09:17:27.570Z,92707.00
2023-06-29T09:18:29.052Z,92705.00
2023-06-29T09:19:27.588Z,92707.00
2023-06-29T09:20:27.595Z,92703.00
2023-06-29T09:21:27.635Z,92707.00
2023-06-29T09:22:27.685Z,92705.00
2023-06-29T09:23:27.741Z,92703.00
2023-06-29T09:24:27.766Z,92703.00
2023-06-29T09:25:34.130Z,92701.00
2023-06-29T09:26:28.859Z,92705.00
2023-06-29T09:27:27.793Z,92703.00
2023-06-29T09:28:27.798Z,92699.00
2023-06-29T09:29:27.771Z,92697.00
2023-06-29T09:30:27.750Z,92699.00
2023-06-29T09:31:27.799Z,92695.00
2023-06-29T09:32:27.735Z,92691.00
2023-06-29T09:33:27.732Z,92693.00
2023-06-29T09:34:27.713Z,92691.00
2023-06-29T09:35:27.737Z,92689.00
2023-06-29T09:36:27.691Z,92689.00
2023-06-29T09:37:27.688Z,92691.00
2023-06-29T09:38:27.681Z,92688.00
2023-06-29T09:39:27.718Z,92688.00
2023-06-29T09:40:27.650Z,92686.00
2023-06-29T09:41:27.637Z,92684.00
2023-06-29T09:42:28.481Z,92680.00
2023-06-29T09:43:27.662Z,92680.00
2023-06-29T09:44:27.592Z,92678.00
2023-06-29T09:45:27.574Z,92674.00
2023-06-29T09:46:29.655Z,92672.00
2023-06-29T09:49:27.572Z,92668.00
2023-06-29T09:50:27.635Z,92662.00
2023-06-29T09:51:27.549Z,92660.00
2023-06-29T09:52:27.515Z,92658.00
2023-06-29T09:53:27.479Z,92654.00
2023-06-29T09:54:27.466Z,92650.00
2023-06-29T09:55:27.457Z,92650.00
2023-06-29T09:56:27.455Z,92646.00
2023-06-29T09:57:27.441Z,92642.00
2023-06-29T09:58:27.438Z,92641.00
2023-06-29T09:59:27.435Z,92641.00
2023-06-29T10:00:27.405Z,92642.00
2023-06-29T10:01:27.422Z,92639.00
2023-06-29T10:02:27.494Z,92641.00
2023-06-29T10:03:27.425Z,92633.00
2023-06-29T10:04:27.404Z,92635.00
2023-06-29T10:05:27.353Z,92633.00
2023-06-29T10:06:27.347Z,92629.00
2023-06-29T10:07:27.536Z,92627.00
2023-06-29T10:08:27.307Z,92625.00
2023-06-29T10:09:27.317Z,92629.00
2023-06-29T10:10:27.285Z,92625.00
2023-06-29T10:11:27.710Z,92621.00
2023-06-29T10:12:27.263Z,92621.00
2023-06-29T10:13:27.251Z,92613.00
2023-06-29T10:14:27.284Z,92613.00
2023-06-29T10:15:27.229Z,92617.00
2023-06-29T10:16:27.306Z,92613.00
2023-06-29T10:17:28.003Z,92613.00
2023-06-29T10:18:27.457Z,92611.00
2023-06-29T10:19:27.206Z,92611.00
2023-06-29T10:20:27.205Z,92609.00
2023-06-29T10:21:27.168Z,92609.00
2023-06-29T10:22:27.149Z,92603.00
2023-06-29T10:23:27.323Z,92603.00
2023-06-29T10:24:27.133Z,92603.00
2023-06-29T10:25:27.100Z,92601.00
2023-06-29T10:26:27.097Z,92597.00
2023-06-29T10:27:27.111Z,92599.00
2023-06-29T10:28:27.068Z,92595.00
2023-06-29T10:29:27.081Z,92595.00
2023-06-29T10:30:27.060Z,92594.00
2023-06-29T10:31:27.175Z,92590.00
2023-06-29T10:32:27.044Z,92592.00
2023-06-29T10:33:27.017Z,92588.00
2023-06-29T10:34:27.038Z,92588.00
2023-06-29T10:35:27.284Z,92578.00
2023-06-29T10:36:27.035Z,92574.00
2023-06-29T10:37:26.961Z,92578.00
2023-06-29T10:38:26.957Z,92574.00
2023-06-29T10:39:26.939Z,92574.00
2023-06-29T10:40:26.936Z,92572.00
2023-06-29T10:41:26.929Z,92568.00
2023-06-29T10:42:26.908Z,92568.00
2023-06-29T10:43:26.897Z,92566.00
2023-06-29T10:44:26.981Z,92566.00
2023-06-29T10:45:26.869Z,92564.00
2023-06-29T10:46:26.904Z,92562.00
2023-06-29T10:47:26.879Z,92560.00
2023-06-29T10:48:47.007Z,92560.00
2023-06-29T10:49:27.858Z,92560.00
2023-06-29T10:50:26.817Z,92557.00
2023-06-29T10:51:26.811Z,92557.00
2023-06-29T10:52:26.885Z,92555.00
2023-06-29T10:53:28.366Z,92551.00
2023-06-29T10:54:26.867Z,92549.00
2023-06-29T10:55:26.810Z,92551.00
2023-06-29T10:56:26.779Z,92547.00
2023-06-29T10:57:26.762Z,92545.00
2023-06-29T10:58:26.809Z,92541.00
2023-06-29T10:59:26.745Z,92539.00
2023-06-29T11:00:26.734Z,92535.00
2023-06-29T11:01:26.769Z,92537.00
2023-06-29T11:02:26.783Z,92531.00
2023-06-29T11:03:26.686Z,92531.00
2023-06-29T11:04:26.704Z,92531.00
2023-06-29T11:05:26.631Z,92533.00
2023-06-29T11:06:34.271Z,92527.00
2023-06-29T11:07:27.812Z,92525.00
2023-06-29T11:08:26.592Z,92529.00
2023-06-29T11:09:26.591Z,92523.00
2023-06-29T11:10:26.557Z,92523.00
2023-06-29T11:11:26.542Z,92523.00
2023-06-29T11:12:26.537Z,92525.00
2023-06-29T11:13:26.531Z,92521.00
2023-06-29T11:14:26.511Z,92515.00
2023-06-29T11:15:26.496Z,92515.00
2023-06-29T11:16:26.557Z,92515.00
2023-06-29T11:17:26.632Z,92513.00
2023-06-29T11:18:26.579Z,92513.00
2023-06-29T11:19:26.588Z,92509.00
2023-06-29T11:20:26.623Z,92505.00
2023-06-29T11:21:26.622Z,92505.00
2023-06-29T11:22:26.640Z,92500.00
2023-06-29T11:23:26.649Z,92500.00
2023-06-29T11:24:26.626Z,92498.00
2023-06-29T11:25:26.661Z,92498.00
2023-06-29T11:26:26.618Z,92496.00
2023-06-29T11:27:26.641Z,92494.00
2023-06-29T11:28:26.636Z,92494.00
2023-06-29T11:29:27.457Z,92492.00
2023-06-29T11:30:26.696Z,92486.00
2023-06-29T11:31:26.713Z,92484.00
2023-06-29T11:32:26.628Z,92484.00
2023-06-29T11:33:34.476Z,92476.00
2023-06-29T11:34:27.592Z,92478.00
2023-06-29T11:35:26.703Z,92478.00
2023-06-29T11:36:26.570Z,92474.00
2023-06-29T11:37:26.562Z,92472.00
2023-06-29T11:38:26.569Z,92474.00
2023-06-29T11:39:26.579Z,92472.00
2023-06-29T11:40:26.532Z,92472.00
2023-06-29T11:41:26.519Z,92466.00
2023-06-29T11:42:26.610Z,92464.00
2023-06-29T11:44:26.527Z,92464.00
2023-06-29T11:45:26.473Z,92462.00
2023-06-29T11:46:26.524Z,92458.00
2023-06-29T11:47:33.278Z,92460.00
2023-06-29T11:48:27.434Z,92458.00
2023-06-29T11:49:26.424Z,92458.00
2023-06-29T11:50:26.427Z,92455.00
2023-06-29T11:51:26.382Z,92456.00
2023-06-29T11:52:26.373Z,92453.00
2023-06-29T11:53:26.440Z,92453.00
2023-06-29T11:54:26.955Z,92451.00
2023-06-29T11:55:26.327Z,92449.00
2023-06-29T11:56:26.306Z,92443.00